88NV weather

Public forecast

Using degrees Fahrenheit for public forecast. Weather courtesy of forecast.io.

Closest aviation weather report (METAR) to Black Rock City Airport

Closest report is Derby Field, 51.0 nm (94.4 km) SE. Retrieved 2020/08/11 11:53 UTC (15 minutes ago):

KLOL 111153Z AUTO 07008KT 3SM HZ CLR 18/06 A2997 RMK AO2 SLP099 T01830061 10300 20172 51000

Closest aviation forecast (TAF) to Black Rock City Airport

Forecast is more than 12 hours old.

Closest forecast is Derby Field, 51.0 nm (94.4 km) SE. Retrieved 2010/01/05 05:22 UTC (11 years ago):

TAF KLOL 050522Z 0506/0606 00000KT 1/4SM FZFG VV001 FM052000 VRB03KT 3SM BR OVC002 AMD NOT SKED